Time;durP1;ratioP1;P1;durP2;ratioP2;P2;SDS_P1;SDS_P2;PMS_P1;PMS_P2;Temp;Humidity;BMP_temperature;BMP_pressure;BME280_temperature;BME280_humidity;BME280_pressure;Samples;Min_cycle;Max_cycle;Signal;HPM_P1;HPM_P2
2022/01/14 00:00:18;;;;;;;57.17;21.55;;;;;;;4.35;60.40;103054.31;677020;29;1119;-85
2022/01/14 00:00:38;;;;;;;57.60;21.50;;;;;;;4.29;60.15;103048.56;682450;29;1191;-85
2022/01/14 00:00:59;;;;;;;56.10;21.95;;;;;;;4.20;60.23;103039.19;682683;28;788;-85
2022/01/14 00:01:20;;;;;;;55.23;22.20;;;;;;;4.15;60.33;103048.19;685095;28;1012;-85
2022/01/14 00:01:40;;;;;;;56.90;22.60;;;;;;;4.23;60.29;103043.75;685200;28;1025;-85
2022/01/14 00:02:02;;;;;;;54.75;23.50;;;;;;;4.31;60.18;103055.69;679929;29;1057;-85
2022/01/14 00:02:22;;;;;;;55.15;23.55;;;;;;;4.28;60.49;103055.41;679837;29;840;-85
2022/01/14 00:02:43;;;;;;;55.25;23.38;;;;;;;4.27;60.07;103053.59;682359;29;1205;-85
2022/01/14 00:03:03;;;;;;;57.87;23.00;;;;;;;4.27;60.23;103045.84;679284;29;1267;-85
2022/01/14 00:03:33;;;;;;;57.10;22.92;;;;;;;4.30;60.18;103043.50;679923;29;938;-85
2022/01/14 00:03:54;;;;;;;61.35;23.75;;;;;;;4.20;60.29;103046.94;680435;29;1041;-85
2022/01/14 00:04:14;;;;;;;60.90;23.50;;;;;;;4.16;60.59;103043.94;682109;29;1768;-85
2022/01/14 00:04:36;;;;;;;58.17;23.10;;;;;;;4.07;60.97;103055.25;678676;29;900;-85
2022/01/14 00:04:57;;;;;;;56.78;22.50;;;;;;;3.94;60.90;103039.38;677817;29;1427;-84
2022/01/14 00:05:17;;;;;;;60.42;22.80;;;;;;;4.11;60.86;103043.50;682403;29;1185;-85
2022/01/14 00:05:38;;;;;;;61.55;23.23;;;;;;;4.15;60.86;103047.25;677214;29;1277;-84
2022/01/14 00:05:58;;;;;;;64.40;23.77;;;;;;;4.16;60.90;103038.75;678164;29;827;-85
2022/01/14 00:06:19;;;;;;;66.28;24.20;;;;;;;4.24;60.95;103048.16;680463;28;1196;-85
2022/01/14 00:06:39;;;;;;;66.50;23.50;;;;;;;4.21;60.71;103050.41;679942;29;1144;-85
2022/01/14 00:07:00;;;;;;;62.72;23.33;;;;;;;4.20;60.84;103048.59;687851;28;1284;-85
2022/01/14 00:07:21;;;;;;;57.80;23.08;;;;;;;4.11;61.01;103047.00;682528;28;1286;-85
2022/01/14 00:07:41;;;;;;;55.60;23.20;;;;;;;4.10;61.23;103036.50;679862;29;1176;-85
2022/01/14 00:08:02;;;;;;;58.20;23.10;;;;;;;4.23;61.08;103030.84;675301;29;1869;-85
2022/01/14 00:08:23;;;;;;;55.70;23.02;;;;;;;4.31;60.66;103042.78;679456;29;1110;-84
2022/01/14 00:08:43;;;;;;;57.00;23.65;;;;;;;4.28;60.73;103032.13;682269;29;1263;-85
2022/01/14 00:09:09;;;;;;;58.77;24.10;;;;;;;4.44;60.65;103049.03;682423;28;1107;-84
2022/01/14 00:09:31;;;;;;;59.85;24.48;;;;;;;4.39;60.47;103035.69;679358;29;1228;-85
2022/01/14 00:09:51;;;;;;;58.88;23.88;;;;;;;4.45;60.31;103044.00;685021;28;1458;-85
2022/01/14 00:10:12;;;;;;;57.58;22.63;;;;;;;4.51;60.52;103047.16;677159;29;1245;-85
2022/01/14 00:10:35;;;;;;;58.78;22.80;;;;;;;4.54;60.38;103043.91;682435;28;1261;-84
2022/01/14 00:11:00;;;;;;;56.40;23.02;;;;;;;4.54;60.42;103043.91;682356;28;1481;-85
2022/01/14 00:11:21;;;;;;;60.40;23.58;;;;;;;4.45;60.20;103035.31;677031;29;1361;-85
2022/01/14 00:11:47;;;;;;;67.20;24.10;;;;;;;4.44;60.59;103036.09;681983;29;1647;-85
2022/01/14 00:12:16;;;;;;;64.38;23.65;;;;;;;4.49;60.36;103045.19;679585;29;1232;-85
2022/01/14 00:12:40;;;;;;;65.80;24.27;;;;;;;4.46;60.64;103029.38;679823;29;871;-85
2022/01/14 00:13:10;;;;;;;63.13;23.88;;;;;;;4.55;60.50;103040.56;675977;29;1643;-85
2022/01/14 00:14:38;;;;;;;61.78;23.83;;;;;;;4.61;60.21;103033.34;677324;28;1138;-85
2022/01/14 00:15:11;;;;;;;58.42;23.42;;;;;;;4.67;60.20;103034.66;677146;29;1097;-85
2022/01/14 00:15:34;;;;;;;62.20;24.67;;;;;;;4.69;60.24;103033.09;681367;29;1558;-85
2022/01/14 00:15:55;;;;;;;61.30;24.60;;;;;;;4.69;60.40;103028.88;679526;29;1122;-85
2022/01/14 00:16:15;;;;;;;57.93;23.77;;;;;;;4.72;60.09;103039.47;685086;28;961;-85
2022/01/14 00:16:36;;;;;;;61.88;23.00;;;;;;;4.71;60.05;103036.78;682018;29;1642;-85
2022/01/14 00:16:57;;;;;;;62.20;23.67;;;;;;;4.70;60.34;103029.75;676873;29;1773;-85
2022/01/14 00:17:17;;;;;;;66.50;23.90;;;;;;;4.71;60.41;103029.00;679655;29;1124;-84
2022/01/14 00:17:38;;;;;;;68.07;25.13;;;;;;;4.66;60.21;103033.75;679902;29;866;-85
2022/01/14 00:17:58;;;;;;;68.90;25.10;;;;;;;4.68;60.32;103031.31;679848;29;1073;-85
2022/01/14 00:18:19;;;;;;;65.18;25.70;;;;;;;4.74;60.15;103031.84;679734;29;1059;-85
2022/01/14 00:18:39;;;;;;;63.13;24.67;;;;;;;4.72;60.13;103025.66;682368;28;1110;-85
2022/01/14 00:19:00;;;;;;;65.13;24.57;;;;;;;4.71;60.01;103027.31;678621;29;856;-85
2022/01/14 00:19:20;;;;;;;68.80;25.15;;;;;;;4.75;60.10;103028.50;683768;28;1324;-85
2022/01/14 00:19:42;;;;;;;63.17;25.25;;;;;;;4.71;60.33;103021.25;684110;28;1342;-85
2022/01/14 00:20:04;;;;;;;61.80;24.85;;;;;;;4.78;60.11;103028.75;679876;29;1076;-85
2022/01/14 00:20:24;;;;;;;58.97;23.42;;;;;;;4.60;60.18;103025.47;679904;29;828;-85
2022/01/14 00:20:45;;;;;;;62.35;23.85;;;;;;;4.55;60.23;103025.06;676880;29;1199;-85
2022/01/14 00:21:05;;;;;;;60.57;24.37;;;;;;;4.66;60.17;103028.56;677075;29;1112;-85
2022/01/14 00:21:27;;;;;;;64.13;25.08;;;;;;;4.71;60.50;103026.41;679942;29;835;-85
2022/01/14 00:21:47;;;;;;;68.80;24.90;;;;;;;4.73;60.41;103024.88;684906;28;1344;-85
2022/01/14 00:22:13;;;;;;;68.17;23.90;;;;;;;4.72;60.17;103018.78;682409;29;1120;-85
2022/01/14 00:22:35;;;;;;;63.33;23.73;;;;;;;4.70;60.50;103019.41;682609;29;804;-84
2022/01/14 00:22:56;;;;;;;63.35;25.08;;;;;;;4.72;60.53;103023.94;687334;28;1321;-85
2022/01/14 00:23:18;;;;;;;68.47;26.27;;;;;;;4.75;60.42;103029.41;684935;28;1181;-84
2022/01/14 00:23:41;;;;;;;73.78;25.48;;;;;;;4.67;60.63;103020.06;682515;29;1273;-85
2022/01/14 00:24:13;;;;;;;71.15;24.88;;;;;;;4.77;60.65;103039.88;682200;29;1263;-84
2022/01/14 00:31:49;;;;;;;60.53;25.15;;;;;;;4.77;60.15;103027.84;684967;28;1097;-85
2022/01/14 00:32:59;;;;;;;61.75;24.55;;;;;;;4.88;59.88;103023.63;682351;29;1150;-85
2022/01/14 00:33:20;;;;;;;57.75;24.33;;;;;;;4.82;60.15;103022.16;682404;29;1064;-85
2022/01/14 00:33:40;;;;;;;55.80;24.40;;;;;;;4.89;60.08;103030.63;681578;29;966;-84
2022/01/14 00:34:02;;;;;;;57.90;24.40;;;;;;;4.90;60.13;103032.44;679719;29;1919;-85
2022/01/14 00:34:28;;;;;;;56.63;24.15;;;;;;;4.92;60.19;103030.00;680408;29;1192;-86
2022/01/14 00:34:49;;;;;;;62.03;24.52;;;;;;;4.90;59.97;103026.34;682333;29;1230;-85
2022/01/14 00:35:09;;;;;;;62.53;24.42;;;;;;;4.87;60.14;103024.41;684255;28;1180;-85
2022/01/14 00:35:30;;;;;;;61.58;24.42;;;;;;;4.92;60.33;103041.22;683639;28;993;-85
2022/01/14 00:35:51;;;;;;;60.03;23.88;;;;;;;4.89;59.96;103019.34;684934;28;1155;-85
2022/01/14 00:36:11;;;;;;;59.30;24.07;;;;;;;4.94;60.09;103025.84;676950;29;1475;-85
2022/01/14 00:36:32;;;;;;;61.40;23.80;;;;;;;4.99;60.23;103039.19;677240;29;1072;-85
2022/01/14 00:36:52;;;;;;;66.53;24.27;;;;;;;4.93;59.68;103019.75;677373;29;1350;-85
2022/01/14 00:37:34;;;;;;;71.78;24.25;;;;;;;5.02;59.68;103039.44;677079;29;987;-85
2022/01/14 00:37:55;;;;;;;66.57;24.10;;;;;;;4.98;59.64;103032.19;679233;29;1404;-84
2022/01/14 00:38:16;;;;;;;65.77;24.40;;;;;;;4.96;59.80;103029.47;677146;29;1061;-85
2022/01/14 00:38:36;;;;;;;58.35;24.05;;;;;;;4.93;59.83;103030.09;677619;29;811;-85
2022/01/14 00:38:57;;;;;;;66.05;25.13;;;;;;;4.85;59.52;103013.00;679888;29;1160;-85
2022/01/14 00:39:17;;;;;;;62.23;24.60;;;;;;;4.86;59.55;103027.78;679673;29;1039;-85
2022/01/14 00:39:38;;;;;;;68.65;25.00;;;;;;;4.87;59.81;103023.50;675600;29;1303;-85
2022/01/14 00:39:58;;;;;;;67.07;23.57;;;;;;;4.83;59.82;103030.06;679998;29;1569;-85
2022/01/14 00:40:19;;;;;;;63.70;22.50;;;;;;;4.80;59.79;103022.06;679738;29;1227;-85
2022/01/14 00:40:40;;;;;;;60.63;22.15;;;;;;;4.82;59.84;103027.34;680039;29;1247;-84
2022/01/14 00:41:00;;;;;;;58.92;22.38;;;;;;;4.71;59.61;103027.31;677107;29;1273;-85
2022/01/14 00:41:21;;;;;;;59.57;22.90;;;;;;;4.71;59.63;103031.59;677319;29;1259;-85
2022/01/14 00:41:43;;;;;;;57.80;23.33;;;;;;;4.58;60.01;103025.31;677014;29;1182;-85
2022/01/14 00:42:04;;;;;;;57.33;23.27;;;;;;;4.62;59.73;103026.50;677062;29;1128;-85
2022/01/14 00:42:24;;;;;;;57.80;22.85;;;;;;;4.73;59.90;103035.22;682352;29;1040;-85
2022/01/14 00:42:46;;;;;;;56.80;22.83;;;;;;;4.69;59.87;103027.94;682427;29;1139;-85
2022/01/14 00:43:07;;;;;;;54.13;23.02;;;;;;;4.72;59.76;103034.28;682354;29;993;-85
2022/01/14 00:43:27;;;;;;;52.92;22.90;;;;;;;4.70;59.73;103032.34;682532;29;794;-85
2022/01/14 00:43:50;;;;;;;50.35;22.80;;;;;;;4.69;59.58;103027.94;677067;29;1179;-85
2022/01/14 00:44:15;;;;;;;51.08;21.83;;;;;;;4.70;59.49;103029.75;682296;29;1064;-84
2022/01/14 00:44:36;;;;;;;52.10;21.40;;;;;;;4.65;59.53;103026.75;682454;29;866;-84
2022/01/14 00:44:57;;;;;;;52.20;21.58;;;;;;;4.60;59.52;103033.22;684771;28;1338;-85
2022/01/14 00:45:33;;;;;;;49.83;21.75;;;;;;;4.50;59.65;103031.50;684976;28;1142;-85
2022/01/14 00:45:55;;;;;;;51.22;21.70;;;;;;;4.43;59.72;103029.13;683437;28;1027;-84
2022/01/14 00:46:16;;;;;;;55.20;21.90;;;;;;;4.36;60.10;103023.38;682414;29;1108;-85
2022/01/14 00:46:38;;;;;;;53.95;22.23;;;;;;;4.32;59.94;103030.72;682383;29;1416;-85
2022/01/14 00:47:02;;;;;;;51.70;22.05;;;;;;;4.36;60.29;103038.00;684849;28;1452;-84
2022/01/14 00:47:22;;;;;;;49.45;21.75;;;;;;;4.37;60.31;103030.38;685179;28;918;-85
2022/01/14 00:47:44;;;;;;;49.72;21.40;;;;;;;4.45;59.81;103033.66;685385;28;1157;-85
2022/01/14 00:48:04;;;;;;;48.80;21.48;;;;;;;4.36;60.06;103032.84;682308;29;1171;-85
2022/01/14 00:48:25;;;;;;;49.25;20.70;;;;;;;4.34;60.03;103027.53;677073;29;804;-84
2022/01/14 00:48:46;;;;;;;44.75;20.25;;;;;;;4.35;60.04;103031.91;673048;29;1172;-85
2022/01/14 00:49:07;;;;;;;47.05;20.55;;;;;;;4.28;60.34;103019.22;679617;29;1308;-85
2022/01/14 00:49:27;;;;;;;50.15;20.42;;;;;;;4.32;60.13;103029.06;682164;29;1264;-84
2022/01/14 00:49:48;;;;;;;49.77;19.90;;;;;;;4.28;60.32;103020.91;684191;28;1108;-85
2022/01/14 00:50:12;;;;;;;48.53;19.38;;;;;;;4.24;60.34;103024.88;686938;28;1043;-85
2022/01/14 00:50:34;;;;;;;48.40;20.20;;;;;;;4.30;59.95;103029.69;685086;28;815;-84
2022/01/14 00:50:54;;;;;;;47.08;21.02;;;;;;;4.31;59.82;103022.09;674150;29;1483;-84
2022/01/14 00:51:15;;;;;;;48.40;22.10;;;;;;;4.32;60.09;103031.66;679684;29;1057;-85
2022/01/14 00:51:35;;;;;;;49.17;22.20;;;;;;;4.34;60.10;103030.09;677223;29;761;-85
2022/01/14 00:51:57;;;;;;;51.88;21.40;;;;;;;4.35;60.26;103029.34;681537;29;1166;-85
2022/01/14 00:52:37;;;;;;;50.00;20.90;;;;;;;4.43;60.14;103039.47;676961;29;1585;-85
2022/01/14 00:52:57;;;;;;;48.10;20.45;;;;;;;4.36;60.41;103033.72;679957;29;1550;-85
2022/01/14 00:53:18;;;;;;;47.40;20.00;;;;;;;4.30;60.16;103028.00;682509;28;1175;-84
2022/01/14 00:53:38;;;;;;;45.50;19.67;;;;;;;4.23;60.20;103025.66;684844;28;1144;-84
2022/01/14 00:53:59;;;;;;;48.80;20.80;;;;;;;4.28;60.49;103026.97;685194;28;2019;-84
2022/01/14 00:54:20;;;;;;;51.70;21.60;;;;;;;4.28;60.45;103024.38;684728;28;1196;-84
2022/01/14 00:54:40;;;;;;;55.83;22.27;;;;;;;4.26;60.42;103028.50;685177;28;1087;-84
2022/01/14 00:55:01;;;;;;;51.67;21.50;;;;;;;4.26;60.07;103027.59;677018;29;1185;-85
2022/01/14 00:55:30;;;;;;;49.60;21.17;;;;;;;4.27;60.22;103022.56;677416;29;1505;-85
2022/01/14 00:55:58;;;;;;;46.20;20.73;;;;;;;4.33;60.24;103038.63;677017;29;1133;-85
2022/01/14 00:56:30;;;;;;;45.90;20.60;;;;;;;4.30;60.21;103021.94;682145;29;997;-85
2022/01/14 00:57:13;;;;;;;46.65;20.85;;;;;;;4.26;59.96;103023.34;684928;28;1170;-84
2022/01/14 00:59:32;;;;;;;48.42;20.73;;;;;;;4.33;60.37;103033.47;681935;29;1080;-85
2022/01/14 00:59:52;;;;;;;45.67;21.10;;;;;;;4.31;60.75;103024.66;682072;29;1207;-85
2022/01/14 01:00:14;;;;;;;44.83;20.23;;;;;;;4.46;60.53;103040.66;682183;29;997;-85
2022/01/14 01:00:35;;;;;;;45.38;20.52;;;;;;;4.46;60.77;103034.56;679423;29;1663;-85
2022/01/14 01:00:56;;;;;;;48.13;21.10;;;;;;;4.45;60.36;103027.56;682243;29;1309;-85
2022/01/14 01:01:16;;;;;;;55.28;23.58;;;;;;;4.49;60.53;103033.16;679691;29;1222;-85
2022/01/14 01:01:38;;;;;;;59.80;22.90;;;;;;;4.59;60.27;103036.59;679834;29;824;-85
2022/01/14 01:02:00;;;;;;;59.83;22.90;;;;;;;4.52;60.53;103036.03;679698;29;1336;-84
2022/01/14 01:02:20;;;;;;;55.28;21.55;;;;;;;4.58;60.49;103035.66;685115;28;1295;-84
2022/01/14 01:02:41;;;;;;;52.95;22.75;;;;;;;4.51;60.46;103022.94;682399;28;1182;-85
2022/01/14 01:03:03;;;;;;;54.60;22.43;;;;;;;4.59;60.39;103027.13;682079;29;1163;-85
2022/01/14 01:03:23;;;;;;;61.60;22.70;;;;;;;4.57;60.45;103027.75;682489;29;855;-85
2022/01/14 01:03:44;;;;;;;62.20;22.23;;;;;;;4.61;60.35;103035.03;677136;29;1069;-85
2022/01/14 01:04:05;;;;;;;59.90;23.17;;;;;;;4.59;60.29;103021.06;677099;29;1041;-85
2022/01/14 01:04:31;;;;;;;58.25;23.55;;;;;;;4.58;60.48;103035.66;682106;29;1393;-84
2022/01/14 01:04:54;;;;;;;59.03;24.08;;;;;;;4.65;60.71;103029.34;682237;29;1119;-85
2022/01/14 01:05:16;;;;;;;58.35;24.15;;;;;;;4.67;60.68;103030.41;679690;29;1163;-85
2022/01/14 01:05:36;;;;;;;59.05;24.40;;;;;;;4.72;60.43;103036.00;685078;28;1374;-85
2022/01/14 01:05:57;;;;;;;58.67;23.70;;;;;;;4.70;60.35;103029.75;684708;28;1195;-85
2022/01/14 01:06:17;;;;;;;58.17;23.00;;;;;;;4.71;60.51;103027.31;687558;28;1197;-85
2022/01/14 01:06:44;;;;;;;56.83;22.70;;;;;;;4.70;60.58;103027.16;687839;28;759;-85
2022/01/14 01:07:09;;;;;;;60.67;23.67;;;;;;;4.75;60.12;103033.66;684226;28;1610;-85
2022/01/14 01:07:29;;;;;;;61.33;23.80;;;;;;;4.63;60.54;103030.91;679637;28;1300;-85
2022/01/14 01:08:02;;;;;;;57.80;23.03;;;;;;;4.78;60.77;103046.84;674477;29;1203;-85
2022/01/14 01:08:27;;;;;;;57.17;22.77;;;;;;;4.77;59.95;103045.97;681284;28;1755;-84
2022/01/14 01:08:50;;;;;;;61.40;24.83;;;;;;;4.76;60.33;103040.66;678826;29;1748;-84
2022/01/14 01:09:12;;;;;;;64.55;25.63;;;;;;;4.75;60.11;103041.44;681499;29;1423;-85
2022/01/14 01:09:34;;;;;;;64.90;25.80;;;;;;;4.73;60.26;103028.34;681941;29;1871;-85
2022/01/14 01:09:54;;;;;;;66.38;26.02;;;;;;;4.75;60.17;103046.59;676936;29;1050;-85
2022/01/14 01:10:17;;;;;;;66.30;26.67;;;;;;;4.75;60.57;103051.78;682258;29;1116;-85
2022/01/14 01:10:47;;;;;;;64.75;25.52;;;;;;;4.78;60.29;103044.28;685614;28;2017;-85
2022/01/14 01:11:10;;;;;;;60.65;23.42;;;;;;;4.78;60.24;103054.63;677941;29;1721;-84
2022/01/14 01:11:35;;;;;;;60.38;23.92;;;;;;;4.73;60.32;103051.63;674627;29;932;-85
2022/01/14 01:12:14;;;;;;;68.28;24.90;;;;;;;4.79;59.99;103059.06;679281;29;1293;-85
2022/01/14 01:12:48;;;;;;;65.55;24.70;;;;;;;4.75;60.21;103052.69;682385;29;866;-85
2022/01/14 01:13:17;;;;;;;57.40;23.70;;;;;;;4.71;60.37;103047.13;678914;29;1293;-85
2022/01/14 01:13:43;;;;;;;62.45;24.10;;;;;;;4.75;60.57;103055.28;677240;29;1119;-84
2022/01/14 01:14:18;;;;;;;65.13;24.55;;;;;;;4.71;60.93;103044.53;684006;28;1903;-85
2022/01/14 01:14:48;;;;;;;64.03;24.55;;;;;;;4.68;60.94;103059.75;682313;29;893;-85
2022/01/14 01:15:12;;;;;;;62.72;23.80;;;;;;;4.60;60.74;103054.81;674411;29;1209;-85
2022/01/14 01:15:33;;;;;;;61.97;24.13;;;;;;;4.54;61.09;103046.50;677125;29;844;-85
2022/01/14 01:15:54;;;;;;;62.63;24.48;;;;;;;4.58;61.00;103061.53;682367;29;1013;-85
2022/01/14 01:16:17;;;;;;;60.85;24.42;;;;;;;4.56;60.74;103051.81;687790;28;1131;-85
2022/01/14 01:16:38;;;;;;;63.60;23.55;;;;;;;4.49;61.02;103043.50;684964;28;1218;-85
2022/01/14 01:16:58;;;;;;;62.80;23.42;;;;;;;4.48;61.06;103051.13;677150;29;1350;-85
2022/01/14 01:17:19;;;;;;;61.45;23.92;;;;;;;4.47;61.19;103054.50;679631;29;1203;-84
2022/01/14 01:17:40;;;;;;;61.73;24.60;;;;;;;4.49;61.12;103055.53;682351;29;1128;-85
2022/01/14 01:18:00;;;;;;;61.37;24.47;;;;;;;4.32;61.02;103036.81;676393;29;1132;-85
2022/01/14 01:18:21;;;;;;;63.25;24.17;;;;;;;4.42;60.91;103060.91;674497;29;1499;-85
2022/01/14 01:18:42;;;;;;;64.30;24.13;;;;;;;4.37;61.17;103063.97;677562;29;1339;-85
2022/01/14 01:19:03;;;;;;;62.75;23.83;;;;;;;4.38;61.18;103058.03;682267;28;1395;-85
2022/01/14 01:19:23;;;;;;;57.38;23.17;;;;;;;4.52;61.13;103061.91;684006;28;1279;-85
2022/01/14 01:19:45;;;;;;;60.00;23.87;;;;;;;4.54;61.17;103054.25;676995;29;1143;-85
2022/01/14 01:20:16;;;;;;;62.90;24.30;;;;;;;4.56;60.70;103055.31;682557;29;1218;-85
2022/01/14 01:20:36;;;;;;;62.47;24.33;;;;;;;4.64;60.86;103056.91;679388;29;821;-84
2022/01/14 01:20:57;;;;;;;62.05;24.13;;;;;;;4.64;60.61;103054.31;682682;29;1081;-85
2022/01/14 01:21:18;;;;;;;57.13;23.52;;;;;;;4.60;60.73;103059.97;678773;29;1303;-85
2022/01/14 01:21:38;;;;;;;55.70;23.57;;;;;;;4.56;60.79;103060.50;683038;28;1354;-85
2022/01/14 01:21:59;;;;;;;55.97;23.65;;;;;;;4.50;60.77;103052.19;683029;29;803;-85
2022/01/14 01:22:30;;;;;;;51.88;22.73;;;;;;;4.39;61.13;103056.38;677504;29;1827;-85
2022/01/14 01:23:03;;;;;;;52.55;22.05;;;;;;;4.35;61.47;103052.59;682989;28;2043;-84
2022/01/14 01:23:33;;;;;;;55.60;23.08;;;;;;;4.36;61.47;103054.41;682800;28;1187;-85
2022/01/14 01:24:01;;;;;;;58.60;24.00;;;;;;;4.33;61.45;103069.66;682815;29;1000;-85
2022/01/14 01:24:22;;;;;;;57.50;23.07;;;;;;;4.24;61.49;103058.50;685635;28;1272;-85
2022/01/14 01:24:42;;;;;;;56.03;22.83;;;;;;;4.22;61.94;103060.00;680163;29;1116;-85
2022/01/14 01:25:03;;;;;;;54.38;22.48;;;;;;;4.17;62.23;103063.84;679601;29;1302;-85
2022/01/14 01:25:27;;;;;;;57.25;23.38;;;;;;;4.14;62.55;103061.88;682691;29;1634;-85
2022/01/14 01:25:55;;;;;;;59.13;23.70;;;;;;;4.20;62.71;103066.69;677613;29;1510;-85
2022/01/14 01:26:25;;;;;;;57.55;22.90;;;;;;;4.13;62.44;103054.88;685192;28;1473;-85
2022/01/14 01:26:45;;;;;;;56.03;21.85;;;;;;;4.31;62.14;103060.88;680981;29;1421;-85
2022/01/14 01:27:08;;;;;;;52.30;21.90;;;;;;;4.42;62.13;103063.50;680764;29;1143;-85
2022/01/14 01:27:31;;;;;;;53.80;22.70;;;;;;;4.51;62.05;103059.16;672129;29;1277;-85
2022/01/14 01:27:54;;;;;;;49.63;22.17;;;;;;;4.43;61.90;103066.25;672370;29;1043;-85
2022/01/14 01:28:15;;;;;;;53.72;22.02;;;;;;;4.35;61.98;103068.13;671463;29;1919;-84
2022/01/14 01:28:41;;;;;;;55.15;22.05;;;;;;;4.29;62.18;103058.91;677655;29;742;-85
2022/01/14 01:30:11;;;;;;;56.92;23.60;;;;;;;4.23;62.06;103061.84;677373;29;1297;-84
2022/01/14 01:31:05;;;;;;;58.00;23.37;;;;;;;4.21;62.49;103065.91;677099;29;1724;-85
2022/01/14 01:31:41;;;;;;;57.70;22.65;;;;;;;4.21;62.21;103060.75;680297;29;792;-85
2022/01/14 01:32:02;;;;;;;57.35;23.10;;;;;;;4.29;62.08;103052.03;682249;28;1207;-85
2022/01/14 01:32:22;;;;;;;60.90;24.00;;;;;;;4.40;62.08;103067.66;680254;29;1172;-85
2022/01/14 01:32:47;;;;;;;60.88;23.92;;;;;;;4.51;62.19;103065.25;680055;29;1198;-85
2022/01/14 01:33:08;;;;;;;59.75;24.00;;;;;;;4.49;61.85;103045.19;677488;29;961;-86
2022/01/14 01:33:28;;;;;;;62.60;24.83;;;;;;;4.68;61.57;103065.84;678605;29;1221;-84
2022/01/14 01:33:49;;;;;;;66.22;24.98;;;;;;;4.72;61.57;103064.44;678713;29;1906;-85
2022/01/14 01:34:14;;;;;;;72.00;24.80;;;;;;;4.70;61.14;103058.22;685444;28;1220;-85
2022/01/14 01:34:47;;;;;;;71.32;24.33;;;;;;;4.75;60.91;103069.88;682692;29;878;-85
2022/01/14 01:35:09;;;;;;;70.57;25.42;;;;;;;4.71;61.16;103054.88;678902;29;1142;-85
2022/01/14 01:35:30;;;;;;;70.53;25.35;;;;;;;4.70;61.04;103056.53;685554;28;780;-84
2022/01/14 01:35:50;;;;;;;65.03;26.10;;;;;;;4.75;61.34;103054.34;685515;28;1112;-85
2022/01/14 01:36:11;;;;;;;61.85;25.13;;;;;;;4.80;61.23;103058.28;682924;29;1084;-85
2022/01/14 01:36:32;;;;;;;63.75;25.38;;;;;;;4.77;60.99;103052.81;685029;28;1171;-85
2022/01/14 01:36:55;;;;;;;63.03;25.03;;;;;;;4.71;61.34;103055.75;682626;28;1221;-85
2022/01/14 01:37:16;;;;;;;67.45;25.02;;;;;;;4.79;61.37;103069.41;680097;29;954;-85
2022/01/14 01:37:37;;;;;;;67.93;24.98;;;;;;;4.79;61.19;103051.28;680279;29;828;-85
2022/01/14 01:38:06;;;;;;;73.75;26.10;;;;;;;4.92;60.89;103056.75;682729;28;1451;-85
2022/01/14 01:38:27;;;;;;;75.65;26.48;;;;;;;4.89;61.01;103051.31;681448;29;1708;-85
2022/01/14 01:38:48;;;;;;;69.00;26.20;;;;;;;4.88;61.08;103057.28;682679;28;1190;-85
2022/01/14 01:39:12;;;;;;;65.82;25.80;;;;;;;4.97;61.49;103061.44;677275;29;1532;-85
2022/01/14 01:39:34;;;;;;;63.88;25.92;;;;;;;5.03;61.14;103062.88;677059;29;1190;-85
2022/01/14 01:39:57;;;;;;;70.55;26.48;;;;;;;5.12;61.09;103067.97;681919;28;1227;-85
2022/01/14 01:40:20;;;;;;;75.25;26.75;;;;;;;5.09;61.04;103057.31;679809;29;1066;-85
2022/01/14 01:40:45;;;;;;;77.45;27.52;;;;;;;5.11;61.01;103066.16;679082;29;1021;-85
2022/01/14 01:41:07;;;;;;;73.13;27.63;;;;;;;5.06;60.99;103051.88;684065;28;1449;-85
2022/01/14 01:41:28;;;;;;;74.82;28.15;;;;;;;5.13;60.97;103068.84;685494;28;1109;-85
2022/01/14 01:41:54;;;;;;;80.18;27.83;;;;;;;5.14;60.76;103070.66;682654;29;1281;-86
2022/01/14 01:42:19;;;;;;;81.15;27.58;;;;;;;5.05;60.69;103052.66;682779;29;1101;-85
2022/01/14 01:42:43;;;;;;;77.30;27.88;;;;;;;5.08;60.79;103055.50;677425;29;1228;-84
2022/01/14 01:43:06;;;;;;;82.40;29.17;;;;;;;5.09;61.26;103057.31;680076;29;1156;-85
2022/01/14 01:43:29;;;;;;;82.10;28.45;;;;;;;5.16;60.95;103059.66;680208;29;772;-85
2022/01/14 01:43:53;;;;;;;75.38;27.02;;;;;;;5.19;61.19;103064.22;680228;29;1151;-85
2022/01/14 01:44:16;;;;;;;72.18;26.58;;;;;;;5.17;60.92;103055.41;687846;28;1142;-85
2022/01/14 01:44:39;;;;;;;79.13;28.42;;;;;;;5.23;61.16;103065.41;680210;29;761;-85
2022/01/14 01:45:00;;;;;;;85.55;29.75;;;;;;;5.27;61.15;103059.72;684977;28;1403;-85
2022/01/14 01:45:24;;;;;;;91.28;29.92;;;;;;;5.27;60.87;103058.03;674905;29;1143;-85
2022/01/14 01:45:47;;;;;;;91.40;29.63;;;;;;;5.30;60.75;103054.81;675644;29;1137;-85
2022/01/14 01:46:08;;;;;;;87.32;29.63;;;;;;;5.29;60.77;103058.16;687859;28;1110;-85
2022/01/14 01:46:28;;;;;;;83.87;29.70;;;;;;;5.31;60.65;103065.28;680053;29;1125;-85
2022/01/14 01:46:51;;;;;;;79.00;29.38;;;;;;;5.24;61.07;103065.53;682786;28;1164;-85
2022/01/14 01:47:13;;;;;;;80.28;29.98;;;;;;;5.32;61.03;103056.75;679792;29;1744;-85
2022/01/14 01:47:33;;;;;;;76.70;29.15;;;;;;;5.27;60.97;103057.13;680241;29;769;-86
2022/01/14 01:47:54;;;;;;;79.90;28.45;;;;;;;5.34;60.96;103064.66;683280;28;1178;-85
2022/01/14 01:48:15;;;;;;;87.30;27.95;;;;;;;5.27;61.06;103051.97;679893;29;1490;-85
2022/01/14 01:48:35;;;;;;;89.30;29.35;;;;;;;5.30;61.13;103053.13;682748;29;1795;-85
2022/01/14 01:48:56;;;;;;;88.27;30.90;;;;;;;5.34;61.04;103054.31;679754;29;1090;-85
2022/01/14 01:49:19;;;;;;;82.53;30.73;;;;;;;5.36;61.29;103052.75;682716;29;993;-85
2022/01/14 01:49:53;;;;;;;83.57;29.60;;;;;;;5.47;60.88;103072.69;681236;28;1364;-85
2022/01/14 01:50:18;;;;;;;84.40;30.25;;;;;;;5.40;60.89;103053.91;682665;29;1130;-85
2022/01/14 01:50:38;;;;;;;84.63;29.88;;;;;;;5.39;60.91;103055.59;685321;28;1223;-85
2022/01/14 01:50:59;;;;;;;85.53;28.77;;;;;;;5.44;60.96;103062.09;680233;29;736;-86
2022/01/14 01:51:21;;;;;;;85.57;28.42;;;;;;;5.44;61.05;103058.56;677241;29;1173;-85
2022/01/14 01:51:43;;;;;;;88.32;28.30;;;;;;;5.53;61.03;103061.94;680697;28;1353;-86
2022/01/14 01:52:05;;;;;;;86.20;29.00;;;;;;;5.38;60.93;103051.19;684352;28;1523;-85
2022/01/14 01:52:25;;;;;;;84.90;29.35;;;;;;;5.48;60.95;103065.84;677567;29;829;-86
2022/01/14 01:52:46;;;;;;;81.27;28.93;;;;;;;5.48;61.00;103058.97;676048;29;1485;-85
2022/01/14 01:53:07;;;;;;;85.35;28.38;;;;;;;5.54;61.03;103073.22;680039;29;1066;-85
2022/01/14 01:53:34;;;;;;;78.32;28.33;;;;;;;5.46;61.25;103057.94;682763;29;850;-85
2022/01/14 01:53:55;;;;;;;85.22;29.08;;;;;;;5.43;61.13;103065.44;682636;29;1910;-86
2022/01/14 01:54:17;;;;;;;80.68;29.08;;;;;;;5.33;61.15;103058.56;682574;29;1013;-85
2022/01/14 01:54:37;;;;;;;82.90;28.88;;;;;;;5.28;61.42;103053.78;682746;29;832;-86
2022/01/14 01:54:58;;;;;;;84.33;29.50;;;;;;;5.27;61.62;103057.13;679946;29;1255;-85
2022/01/14 01:55:20;;;;;;;85.18;29.52;;;;;;;5.23;61.63;103062.81;685261;28;1203;-86
2022/01/14 01:55:41;;;;;;;78.13;28.38;;;;;;;5.30;62.08;103067.75;675494;29;1226;-86
2022/01/14 01:56:02;;;;;;;78.00;28.10;;;;;;;5.26;61.77;103060.47;679544;29;1085;-86
2022/01/14 01:56:23;;;;;;;76.50;28.70;;;;;;;5.23;61.84;103052.44;677552;29;1268;-86
2022/01/14 01:56:44;;;;;;;76.80;28.98;;;;;;;5.27;61.85;103062.31;679891;29;1312;-85
2022/01/14 01:57:05;;;;;;;76.70;28.90;;;;;;;5.19;61.77;103057.38;682476;28;1181;-86
2022/01/14 01:57:25;;;;;;;77.10;27.83;;;;;;;5.20;61.98;103066.94;682760;29;1343;-87
2022/01/14 01:57:46;;;;;;;76.10;27.60;;;;;;;5.16;61.74;103056.19;677899;29;1192;-85
2022/01/14 01:58:07;;;;;;;74.57;28.50;;;;;;;5.18;62.02;103058.16;677328;29;1135;-86
2022/01/14 01:58:27;;;;;;;78.93;28.73;;;;;;;5.14;62.16;103050.88;674920;29;828;-86
2022/01/14 01:58:48;;;;;;;77.03;28.52;;;;;;;5.18;62.19;103058.16;680002;29;1216;-86
2022/01/14 01:59:09;;;;;;;74.97;27.85;;;;;;;5.23;62.16;103057.63;685183;28;1085;-86
2022/01/14 01:59:30;;;;;;;72.82;27.83;;;;;;;5.32;62.26;103061.94;682330;29;812;-85
2022/01/14 01:59:57;;;;;;;78.40;27.73;;;;;;;5.31;61.97;103056.59;676158;29;1242;-86